createdAt,value
2018-09-13T00:01:52.539Z,17.50
2018-09-13T00:04:22.941Z,17.50
2018-09-13T00:06:52.836Z,17.40
2018-09-13T00:09:22.652Z,17.30
2018-09-13T00:11:52.077Z,17.30
2018-09-13T00:14:22.448Z,17.20
2018-09-13T00:16:52.319Z,17.20
2018-09-13T00:19:22.500Z,17.10
2018-09-13T00:21:51.930Z,17.20
2018-09-13T00:24:21.589Z,17.20
2018-09-13T00:26:51.037Z,17.20
2018-09-13T00:29:20.745Z,17.10
2018-09-13T00:31:50.171Z,17.00
2018-09-13T00:34:19.852Z,16.90
2018-09-13T00:36:49.508Z,16.90
2018-09-13T00:39:18.933Z,16.80
2018-09-13T00:41:48.608Z,16.70
2018-09-13T00:44:18.445Z,16.70
2018-09-13T00:46:47.915Z,16.60
2018-09-13T00:49:17.344Z,16.60
2018-09-13T00:51:46.769Z,16.60
2018-09-13T00:54:16.434Z,16.60
2018-09-13T00:56:45.884Z,16.60
2018-09-13T00:59:15.557Z,16.50
2018-09-13T01:01:45.135Z,16.40
2018-09-13T01:12:55.262Z,16.40
2018-09-13T01:15:25.015Z,16.30
2018-09-13T01:17:54.483Z,16.30
2018-09-13T01:20:24.094Z,16.30
2018-09-13T01:22:53.544Z,16.40
2018-09-13T01:25:23.329Z,16.40
2018-09-13T01:27:52.763Z,16.40
2018-09-13T01:30:23.112Z,16.40
2018-09-13T01:32:52.549Z,16.40
2018-09-13T01:35:25.537Z,16.40
2018-09-13T01:37:57.736Z,16.40
2018-09-13T01:40:27.694Z,16.40
2018-09-13T01:42:57.145Z,16.40
2018-09-13T01:45:30.139Z,16.40
2018-09-13T01:48:00.869Z,16.30
2018-09-13T01:50:34.074Z,16.30
2018-09-13T01:53:03.493Z,16.30
2018-09-13T01:55:33.868Z,16.40
2018-09-13T01:58:03.348Z,16.30
2018-09-13T02:00:33.421Z,16.30
2018-09-13T02:03:02.724Z,16.30
2018-09-13T02:05:34.027Z,16.30
2018-09-13T02:08:03.789Z,16.20
2018-09-13T02:10:33.828Z,16.20
2018-09-13T02:13:03.490Z,16.20
2018-09-13T02:15:33.161Z,16.20
2018-09-13T02:18:03.069Z,16.20
2018-09-13T02:20:32.699Z,16.20
2018-09-13T02:23:02.864Z,16.10
2018-09-13T02:25:33.853Z,16.10
2018-09-13T02:28:03.310Z,16.10
2018-09-13T02:30:32.936Z,16.10
2018-09-13T02:33:02.617Z,16.10
2018-09-13T02:35:33.853Z,16.00
2018-09-13T02:38:03.766Z,15.90
2018-09-13T02:40:33.410Z,15.90
2018-09-13T02:43:03.573Z,15.80
2018-09-13T02:45:33.790Z,15.80
2018-09-13T02:48:03.755Z,15.70
2018-09-13T02:50:33.421Z,15.70
2018-09-13T02:53:03.313Z,15.70
2018-09-13T02:55:33.968Z,15.70
2018-09-13T02:58:03.928Z,15.70
2018-09-13T03:00:33.612Z,15.70
2018-09-13T03:03:03.772Z,15.70
2018-09-13T03:05:33.694Z,15.70
2018-09-13T03:08:03.435Z,15.70
2018-09-13T03:10:33.852Z,15.70
2018-09-13T03:13:03.332Z,15.70
2018-09-13T03:15:32.760Z,15.80
2018-09-13T03:18:02.082Z,15.80
2018-09-13T03:20:31.882Z,15.80
2018-09-13T03:23:01.421Z,15.70
2018-09-13T03:25:31.539Z,15.70
2018-09-13T03:28:02.159Z,15.60
2018-09-13T03:30:33.819Z,15.60
2018-09-13T03:33:03.619Z,15.70
2018-09-13T03:35:34.192Z,15.70
2018-09-13T03:38:03.383Z,15.70
2018-09-13T03:40:32.586Z,15.70
2018-09-13T03:43:01.818Z,15.80
2018-09-13T03:45:31.139Z,15.80
2018-09-13T03:48:01.344Z,15.80
2018-09-13T03:50:30.850Z,15.90
2018-09-13T03:53:00.275Z,16.00
2018-09-13T03:55:30.283Z,16.00
2018-09-13T03:57:59.702Z,16.00
2018-09-13T04:00:29.232Z,16.10
2018-09-13T04:02:58.699Z,16.10
2018-09-13T04:05:32.474Z,16.20
2018-09-13T04:08:01.945Z,16.20
2018-09-13T04:10:31.533Z,16.20
2018-09-13T04:13:00.865Z,16.20
2018-09-13T04:15:30.198Z,16.20
2018-09-13T04:17:59.539Z,16.30
2018-09-13T04:20:30.379Z,16.30
2018-09-13T04:23:12.872Z,16.30
2018-09-13T04:29:32.300Z,16.30
2018-09-13T04:45:11.051Z,16.30
2018-09-13T04:52:13.151Z,16.30
2018-09-13T04:54:44.581Z,16.30
2018-09-13T04:57:20.626Z,16.30
2018-09-13T04:59:54.101Z,16.30
2018-09-13T05:05:29.887Z,16.40
2018-09-13T05:08:00.496Z,16.40
2018-09-13T05:10:30.100Z,16.40
2018-09-13T05:13:00.314Z,16.50
2018-09-13T05:15:31.450Z,16.50
2018-09-13T05:18:00.651Z,16.50
2018-09-13T05:20:30.091Z,16.50
2018-09-13T05:22:59.240Z,16.60
2018-09-13T05:25:28.522Z,16.70
2018-09-13T05:28:00.644Z,16.70
2018-09-13T05:30:30.249Z,16.70
2018-09-13T05:32:59.628Z,16.70
2018-09-13T05:35:29.104Z,16.80
2018-09-13T05:37:58.529Z,16.80
2018-09-13T05:40:27.954Z,16.90
2018-09-13T05:42:57.204Z,16.90
2018-09-13T05:45:27.973Z,17.00
2018-09-13T05:47:57.567Z,17.00
2018-09-13T05:50:27.060Z,17.10
2018-09-13T05:52:56.306Z,17.10
2018-09-13T05:55:27.877Z,17.10
2018-09-13T05:57:57.315Z,17.20
2018-09-13T06:00:26.735Z,17.20
2018-09-13T06:02:56.117Z,17.30
2018-09-13T06:05:26.635Z,17.30
2018-09-13T06:07:56.232Z,17.40
2018-09-13T06:10:25.675Z,17.50
2018-09-13T06:12:55.100Z,17.50
2018-09-13T06:15:25.522Z,17.60
2018-09-13T06:17:54.944Z,17.70
2018-09-13T06:20:24.317Z,17.70
2018-09-13T06:22:53.691Z,17.80
2018-09-13T06:25:24.244Z,17.90
2018-09-13T06:27:53.694Z,18.00
2018-09-13T06:30:23.126Z,18.10
2018-09-13T06:32:52.550Z,18.10
2018-09-13T06:35:22.296Z,18.20
2018-09-13T06:37:51.555Z,18.30
2018-09-13T06:40:21.386Z,18.40
2018-09-13T06:42:50.804Z,18.40
2018-09-13T06:45:21.220Z,18.40
2018-09-13T06:47:50.604Z,18.50
2018-09-13T06:50:20.012Z,18.50
2018-09-13T06:52:49.487Z,18.50
2018-09-13T06:55:22.806Z,18.50
2018-09-13T06:57:56.224Z,18.50
2018-09-13T07:00:25.714Z,18.60
2018-09-13T07:02:57.214Z,18.60
2018-09-13T07:05:26.954Z,18.70
2018-09-13T07:07:56.394Z,18.70
2018-09-13T07:10:25.891Z,18.80
2018-09-13T07:12:55.366Z,18.90
2018-09-13T07:15:25.755Z,19.00
2018-09-13T07:17:55.158Z,19.20
2018-09-13T07:20:24.417Z,19.40
2018-09-13T07:22:53.826Z,19.60
2018-09-13T07:25:23.472Z,19.80
2018-09-13T07:27:53.726Z,19.90
2018-09-13T07:30:23.231Z,20.00
2018-09-13T07:32:52.669Z,20.10
2018-09-13T07:35:22.251Z,20.20
2018-09-13T07:37:51.692Z,20.30
2018-09-13T07:40:21.606Z,20.50
2018-09-13T07:42:51.465Z,20.60
2018-09-13T07:45:20.883Z,20.70
2018-09-13T07:47:50.301Z,20.90
2018-09-13T07:50:19.729Z,21.00
2018-09-13T07:52:49.196Z,21.20
2018-09-13T07:55:18.774Z,21.20
2018-09-13T07:57:48.181Z,21.20
2018-09-13T08:00:17.613Z,21.30
2018-09-13T08:02:47.012Z,21.30
2018-09-13T08:05:16.697Z,21.40
2018-09-13T08:07:46.016Z,21.50
2018-09-13T08:10:15.419Z,21.50
2018-09-13T08:12:44.787Z,21.60
2018-09-13T08:15:14.299Z,21.50
2018-09-13T08:17:44.396Z,21.50
2018-09-13T08:20:13.885Z,21.50
2018-09-13T08:22:43.311Z,21.40
2018-09-13T08:25:12.811Z,21.30
2018-09-13T08:27:42.364Z,21.10
2018-09-13T08:30:11.984Z,20.90
2018-09-13T08:32:41.781Z,20.80
2018-09-13T08:35:12.270Z,20.60
2018-09-13T08:37:41.686Z,20.50
2018-09-13T08:40:11.139Z,20.50
2018-09-13T08:42:40.535Z,20.50
2018-09-13T08:45:10.094Z,20.50
2018-09-13T08:47:39.676Z,20.60
2018-09-13T08:50:09.040Z,20.70
2018-09-13T08:52:38.384Z,20.80
2018-09-13T08:55:10.072Z,21.00
2018-09-13T08:57:40.136Z,21.40
2018-09-13T09:00:11.881Z,21.80
2018-09-13T09:02:41.540Z,22.30
2018-09-13T09:05:12.041Z,22.70
2018-09-13T09:07:41.788Z,22.90
2018-09-13T09:10:11.247Z,23.20
2018-09-13T09:12:40.598Z,23.50
2018-09-13T09:15:11.113Z,23.90
2018-09-13T09:17:41.467Z,24.10
2018-09-13T09:20:10.828Z,24.40
2018-09-13T09:22:40.292Z,24.50
2018-09-13T09:25:09.759Z,24.70
2018-09-13T09:27:39.423Z,24.80
2018-09-13T09:30:08.872Z,24.60
2018-09-13T09:32:38.339Z,24.50
2018-09-13T09:35:08.117Z,24.30
2018-09-13T09:37:37.387Z,24.20
2018-09-13T09:40:07.079Z,24.20
2018-09-13T09:42:36.497Z,24.10
2018-09-13T09:45:06.877Z,24.00
2018-09-13T09:47:36.324Z,24.00
2018-09-13T09:50:06.382Z,23.80
2018-09-13T09:52:36.295Z,23.70
2018-09-13T09:55:05.807Z,23.60
2018-09-13T09:57:35.218Z,23.50
2018-09-13T10:00:04.972Z,23.50
2018-09-13T10:02:34.450Z,23.60
2018-09-13T10:05:04.643Z,23.80
2018-09-13T10:07:34.777Z,23.90
2018-09-13T10:10:04.465Z,24.00
2018-09-13T10:12:33.846Z,24.20
2018-09-13T10:15:08.317Z,24.40
2018-09-13T10:17:42.868Z,24.60
2018-09-13T10:20:17.743Z,24.60
2018-09-13T10:22:52.232Z,24.60
2018-09-13T10:25:27.897Z,24.70
2018-09-13T10:31:41.169Z,25.30
2018-09-13T10:34:25.366Z,25.60
2018-09-13T10:37:00.706Z,25.40
2018-09-13T10:39:39.447Z,25.30
2018-09-13T10:42:14.753Z,25.40
2018-09-13T10:44:49.533Z,25.60
2018-09-13T10:47:34.125Z,25.70
2018-09-13T11:03:24.616Z,25.10
2018-09-13T11:05:56.288Z,24.80
2018-09-13T11:19:35.010Z,24.80
2018-09-13T12:53:41.585Z,25.30
2018-09-13T12:56:11.048Z,25.00
2018-09-13T12:58:56.806Z,25.00
2018-09-13T13:02:08.549Z,25.00
2018-09-13T13:04:52.935Z,25.00
2018-09-13T13:16:14.560Z,25.50
2018-09-13T13:19:01.864Z,25.70
2018-09-13T13:24:34.624Z,25.90
2018-09-13T13:27:20.238Z,26.10
2018-09-13T13:29:58.724Z,26.50
2018-09-13T13:32:41.182Z,26.70
2018-09-13T13:38:03.762Z,27.70
2018-09-13T13:46:39.035Z,28.60
2018-09-13T14:00:54.855Z,29.40
2018-09-13T14:03:46.101Z,30.00
2018-09-13T14:15:01.384Z,31.30
2018-09-13T14:37:41.116Z,29.30
2018-09-13T14:40:15.751Z,28.50
2018-09-13T14:42:47.659Z,28.00
2018-09-13T14:45:18.119Z,27.30
2018-09-13T14:47:47.685Z,26.60
2018-09-13T14:50:17.606Z,26.00
2018-09-13T14:52:47.455Z,25.80
2018-09-13T14:55:17.404Z,25.40
2018-09-13T14:57:47.828Z,25.00
2018-09-13T15:00:17.157Z,24.70
2018-09-13T15:02:46.611Z,24.50
2018-09-13T15:05:16.266Z,24.40
2018-09-13T15:07:45.839Z,24.30
2018-09-13T15:10:15.142Z,24.20
2018-09-13T15:12:45.056Z,24.00
2018-09-13T15:15:16.068Z,23.90
2018-09-13T15:17:45.442Z,23.80
2018-09-13T15:20:16.037Z,23.60
2018-09-13T15:22:45.826Z,23.40
2018-09-13T15:25:15.124Z,23.10
2018-09-13T15:27:44.551Z,22.90
2018-09-13T15:30:13.963Z,22.80
2018-09-13T15:32:43.329Z,22.80
2018-09-13T15:35:17.712Z,22.70
2018-09-13T15:37:47.026Z,22.50
2018-09-13T15:40:16.533Z,22.30
2018-09-13T15:42:45.874Z,22.10
2018-09-13T15:45:15.677Z,21.80
2018-09-13T15:47:44.932Z,21.60
2018-09-13T15:50:14.162Z,21.20
2018-09-13T15:52:43.454Z,20.70
2018-09-13T15:55:18.513Z,20.20
2018-09-13T15:57:48.042Z,19.70
2018-09-13T16:00:18.624Z,19.40
2018-09-13T16:02:47.972Z,19.00
2018-09-13T16:05:18.674Z,18.80
2018-09-13T16:07:49.237Z,18.50
2018-09-13T16:10:20.481Z,18.30
2018-09-13T16:12:50.931Z,18.00
2018-09-13T16:15:23.992Z,17.70
2018-09-13T16:17:59.433Z,17.60
2018-09-13T16:20:31.155Z,17.40
2018-09-13T16:23:01.638Z,17.30
2018-09-13T16:25:32.856Z,17.20
2018-09-13T16:28:02.898Z,17.10
2018-09-13T16:30:33.519Z,16.90
2018-09-13T16:33:03.061Z,16.90
2018-09-13T16:35:33.320Z,16.70
2018-09-13T16:38:09.214Z,16.60
2018-09-13T16:40:48.319Z,16.60
2018-09-13T16:43:26.405Z,16.60
2018-09-13T16:46:01.223Z,16.60
2018-09-13T16:48:36.221Z,16.70
2018-09-13T16:51:07.519Z,16.70
2018-09-13T16:53:37.334Z,16.80
2018-09-13T16:56:10.854Z,16.80
2018-09-13T16:58:42.054Z,16.70
2018-09-13T17:01:12.303Z,16.80
2018-09-13T17:03:47.017Z,16.80
2018-09-13T17:06:19.948Z,16.80
2018-09-13T17:08:51.058Z,16.90
2018-09-13T17:11:20.566Z,16.90
2018-09-13T17:13:51.210Z,16.90
2018-09-13T17:16:20.669Z,16.90
2018-09-13T17:18:50.142Z,16.80
2018-09-13T17:21:20.118Z,16.80
2018-09-13T17:23:49.817Z,16.80
2018-09-13T17:26:19.248Z,16.80
2018-09-13T17:28:49.734Z,16.80
2018-09-13T17:31:19.926Z,16.80
2018-09-13T17:33:50.231Z,16.80
2018-09-13T17:36:19.428Z,16.90
2018-09-13T17:38:48.909Z,16.80
2018-09-13T17:41:18.175Z,16.80
2018-09-13T17:43:51.549Z,16.70
2018-09-13T17:46:20.806Z,16.70
2018-09-13T17:48:50.027Z,16.70
2018-09-13T17:51:19.241Z,16.60
2018-09-13T17:53:51.584Z,16.50
2018-09-13T17:56:20.816Z,16.40
2018-09-13T17:58:51.235Z,16.30
2018-09-13T18:01:20.533Z,16.20
2018-09-13T18:03:50.123Z,16.20
2018-09-13T18:06:19.663Z,16.20
2018-09-13T18:08:48.899Z,16.20
2018-09-13T18:11:18.095Z,16.10
2018-09-13T18:13:54.675Z,16.10
2018-09-13T18:16:25.178Z,16.10
2018-09-13T18:18:54.416Z,16.10
2018-09-13T18:21:23.778Z,16.10
2018-09-13T18:23:53.359Z,16.00
2018-09-13T18:26:22.661Z,16.00
2018-09-13T18:28:51.972Z,16.00
2018-09-13T18:31:21.347Z,16.00
2018-09-13T18:33:50.667Z,16.00
2018-09-13T18:36:19.879Z,15.90
2018-09-13T18:38:49.249Z,16.00
2018-09-13T18:41:18.542Z,16.00
2018-09-13T18:43:48.888Z,16.00
2018-09-13T18:46:18.104Z,16.00
2018-09-13T18:48:47.342Z,15.90
2018-09-13T18:51:16.562Z,16.00
2018-09-13T18:53:48.591Z,16.00
2018-09-13T18:56:17.903Z,16.10
2018-09-13T18:58:47.221Z,16.00
2018-09-13T19:01:16.415Z,16.00
2018-09-13T19:03:45.690Z,16.00
2018-09-13T19:06:14.900Z,16.00
2018-09-13T19:08:44.123Z,16.00
2018-09-13T19:11:13.393Z,16.00
2018-09-13T19:13:42.774Z,16.10
2018-09-13T19:16:12.132Z,15.90
2018-09-13T19:18:41.501Z,15.90
2018-09-13T19:21:10.680Z,15.80
2018-09-13T19:23:44.345Z,15.80
2018-09-13T19:26:15.783Z,15.80
2018-09-13T19:28:44.939Z,15.90
2018-09-13T19:31:14.142Z,15.90
2018-09-13T19:33:43.818Z,15.90
2018-09-13T19:36:13.179Z,15.90
2018-09-13T19:38:42.435Z,15.90
2018-09-13T19:41:13.246Z,15.90
2018-09-13T19:43:45.840Z,15.90
2018-09-13T19:46:16.055Z,15.90
2018-09-13T19:48:45.232Z,16.00
2018-09-13T19:51:14.693Z,16.00
2018-09-13T19:53:44.984Z,16.00
2018-09-13T19:56:14.188Z,16.00
2018-09-13T19:58:43.331Z,16.00
2018-09-13T20:01:12.539Z,16.00
2018-09-13T20:03:42.810Z,16.00
2018-09-13T20:06:12.000Z,16.00
2018-09-13T20:08:41.232Z,16.00
2018-09-13T20:11:11.387Z,16.00
2018-09-13T20:13:40.614Z,16.00
2018-09-13T20:16:09.859Z,16.10
2018-09-13T20:18:40.356Z,16.00
2018-09-13T20:21:11.052Z,16.00
2018-09-13T20:23:43.808Z,15.90
2018-09-13T20:26:13.005Z,15.90
2018-09-13T20:28:42.304Z,15.90
2018-09-13T20:31:11.562Z,15.90
2018-09-13T20:33:41.793Z,15.90
2018-09-13T20:36:11.151Z,15.90
2018-09-13T20:38:40.333Z,15.90
2018-09-13T20:41:09.519Z,15.90
2018-09-13T20:43:39.818Z,15.90
2018-09-13T20:46:09.072Z,15.90
2018-09-13T20:48:38.322Z,15.80
2018-09-13T20:51:07.548Z,15.80
2018-09-13T20:53:40.530Z,15.80
2018-09-13T20:56:11.131Z,15.80
2018-09-13T20:58:40.351Z,15.80
2018-09-13T21:01:09.568Z,15.80
2018-09-13T21:03:38.931Z,15.80
2018-09-13T21:06:08.126Z,15.80
2018-09-13T21:08:37.368Z,15.80
2018-09-13T21:11:06.542Z,15.90
2018-09-13T21:13:35.938Z,15.90
2018-09-13T21:16:05.165Z,15.80
2018-09-13T21:18:34.404Z,15.80
2018-09-13T21:21:03.664Z,15.80
2018-09-13T21:23:32.910Z,15.80
2018-09-13T21:26:02.142Z,15.80
2018-09-13T21:28:31.310Z,15.80
2018-09-13T21:31:00.522Z,15.80
2018-09-13T21:33:29.881Z,15.80
2018-09-13T21:35:59.064Z,15.70
2018-09-13T21:38:28.313Z,15.60
2018-09-13T21:40:57.616Z,15.60
2018-09-13T21:43:26.921Z,15.40
2018-09-13T21:45:56.148Z,15.40
2018-09-13T21:48:25.418Z,15.40
2018-09-13T21:50:54.609Z,15.40
2018-09-13T21:53:23.934Z,15.30
2018-09-13T21:55:53.159Z,15.30
2018-09-13T21:58:22.635Z,15.30
2018-09-13T22:00:51.821Z,15.20
2018-09-13T22:03:21.113Z,15.20
2018-09-13T22:05:50.571Z,15.20
2018-09-13T22:08:19.796Z,15.10
2018-09-13T22:10:50.230Z,15.10
2018-09-13T22:13:19.440Z,15.20
2018-09-13T22:15:48.682Z,15.10
2018-09-13T22:18:17.899Z,15.10
2018-09-13T22:20:47.102Z,15.00
2018-09-13T22:23:16.295Z,15.00
2018-09-13T22:25:45.522Z,15.00
2018-09-13T22:28:14.694Z,15.00
2018-09-13T22:30:43.901Z,15.00
2018-09-13T22:33:13.103Z,15.00
2018-09-13T22:35:42.278Z,14.80
2018-09-13T22:38:11.493Z,14.60
2018-09-13T22:40:40.703Z,14.60
2018-09-13T22:43:09.868Z,14.50
2018-09-13T22:45:39.083Z,14.50
2018-09-13T22:48:08.278Z,14.60
2018-09-13T22:50:37.461Z,14.60
2018-09-13T22:53:06.662Z,14.50
2018-09-13T22:55:35.881Z,14.40
2018-09-13T22:58:05.079Z,14.40
2018-09-13T23:00:34.309Z,14.30
2018-09-13T23:03:03.477Z,14.30
2018-09-13T23:05:32.673Z,14.20
2018-09-13T23:08:01.877Z,14.20
2018-09-13T23:10:31.078Z,14.20
2018-09-13T23:13:00.267Z,14.10
2018-09-13T23:15:29.500Z,14.10
2018-09-13T23:17:58.682Z,14.10
2018-09-13T23:20:27.909Z,14.10
2018-09-13T23:22:57.098Z,14.00
2018-09-13T23:25:26.261Z,14.00
2018-09-13T23:27:55.447Z,14.10
2018-09-13T23:30:24.702Z,14.20
2018-09-13T23:32:53.893Z,14.20
2018-09-13T23:35:23.097Z,14.20
2018-09-13T23:37:52.256Z,14.20
2018-09-13T23:40:21.531Z,14.20
2018-09-13T23:42:50.594Z,14.20
2018-09-13T23:45:20.019Z,14.20
2018-09-13T23:47:49.199Z,14.30
2018-09-13T23:50:18.396Z,14.20
2018-09-13T23:52:47.625Z,14.20
2018-09-13T23:55:16.946Z,14.30
2018-09-13T23:57:46.147Z,14.30
